createdAt,value
2022-12-07T00:12:38.773Z,98074.25
2022-12-07T00:15:18.793Z,98079.53
2022-12-07T00:17:54.181Z,98076.06
2022-12-07T00:20:27.842Z,98079.53
2022-12-07T00:23:01.568Z,98071.63
2022-12-07T00:25:34.834Z,98069.91
2022-12-07T00:39:26.945Z,98070.06
2022-12-07T00:42:01.081Z,98063.00
2022-12-07T00:44:34.804Z,98062.94
2022-12-07T00:47:08.043Z,98061.25
2022-12-07T00:49:34.769Z,98060.31
2022-12-07T00:52:14.780Z,98063.81
2022-12-07T00:54:50.011Z,98064.66
2022-12-07T00:57:22.818Z,98062.94
2022-12-07T01:07:07.749Z,98064.66
2022-12-07T01:09:47.789Z,98064.66
2022-12-07T01:12:23.028Z,98069.06
2022-12-07T01:14:55.801Z,98076.09
2022-12-07T01:17:29.744Z,98082.28
2022-12-07T01:20:05.371Z,98077.88
2022-12-07T01:33:17.808Z,98085.84
2022-12-07T01:35:51.081Z,98075.31
2022-12-07T01:38:24.853Z,98075.31
2022-12-07T01:41:05.653Z,98081.41
2022-12-07T01:44:21.324Z,98074.41
2022-12-07T01:47:02.787Z,98072.63
2022-12-07T02:00:04.002Z,98077.03
2022-12-07T02:02:54.858Z,98070.06
2022-12-07T02:05:28.957Z,98070.06
2022-12-07T02:08:04.881Z,98069.13
2022-12-07T02:10:38.093Z,98063.88
2022-12-07T02:13:18.797Z,98064.78
2022-12-07T02:16:20.138Z,98064.78
2022-12-07T02:26:34.791Z,98055.19
2022-12-07T02:29:24.992Z,98057.81
2022-12-07T02:32:17.777Z,98056.09
2022-12-07T02:34:59.968Z,98050.97
2022-12-07T02:37:49.764Z,98052.66
2022-12-07T02:40:31.859Z,98052.66
2022-12-07T02:53:40.807Z,98035.19
2022-12-07T02:56:34.814Z,98030.84
2022-12-07T02:59:25.724Z,98025.50
2022-12-07T03:02:24.791Z,98031.63
2022-12-07T03:05:21.327Z,98024.66
2022-12-07T03:21:49.758Z,98014.25
2022-12-07T03:24:29.769Z,98004.66
2022-12-07T03:27:19.765Z,98006.44
2022-12-07T03:30:01.477Z,98009.97
2022-12-07T03:32:48.774Z,98011.81
2022-12-07T03:35:29.457Z,98013.59
2022-12-07T03:48:35.721Z,98011.78
2022-12-07T03:51:26.500Z,98014.41
2022-12-07T03:54:10.979Z,98011.81
2022-12-07T03:56:53.740Z,98017.94
2022-12-07T03:59:28.721Z,98008.41
2022-12-07T04:02:09.767Z,98007.53
2022-12-07T04:15:21.737Z,98002.47
2022-12-07T04:17:55.044Z,98003.31
2022-12-07T04:20:28.776Z,97990.28
2022-12-07T04:23:02.041Z,97995.53
2022-12-07T04:25:35.764Z,97982.47
2022-12-07T04:42:12.705Z,97972.34
2022-12-07T04:44:52.807Z,97975.88
2022-12-07T04:47:26.005Z,97972.44
2022-12-07T04:50:00.164Z,97973.31
2022-12-07T04:52:34.036Z,97975.06
2022-12-07T04:55:16.876Z,97980.34
2022-12-07T05:08:28.722Z,97957.78
2022-12-07T05:11:04.253Z,97955.09
2022-12-07T05:13:39.734Z,97958.50
2022-12-07T05:16:13.020Z,97955.94
2022-12-07T05:18:46.733Z,97955.94
2022-12-07T05:21:20.112Z,97936.88
2022-12-07T05:34:10.712Z,97928.56
2022-12-07T05:36:50.737Z,97926.84
2022-12-07T05:39:23.960Z,97925.13
2022-12-07T05:41:50.675Z,97927.84
2022-12-07T05:44:30.736Z,97929.72
2022-12-07T05:47:04.271Z,97928.09
2022-12-07T06:00:24.689Z,97916.09
2022-12-07T06:03:04.823Z,97930.09
2022-12-07T06:05:37.975Z,97928.44
2022-12-07T06:08:11.772Z,97923.25
2022-12-07T06:10:45.086Z,97922.34
2022-12-07T06:13:18.716Z,97916.25
2022-12-07T06:16:00.947Z,97911.75
2022-12-07T06:28:55.706Z,97899.53
2022-12-07T06:31:37.765Z,97907.47
2022-12-07T06:34:14.472Z,97902.38
2022-12-07T06:36:54.761Z,97901.56
2022-12-07T06:39:30.214Z,97899.78
2022-12-07T06:42:04.743Z,97896.31
2022-12-07T06:55:16.717Z,97898.09
2022-12-07T06:57:50.004Z,97895.41
2022-12-07T07:00:25.445Z,97890.13
2022-12-07T07:02:59.041Z,97894.47
2022-12-07T07:05:32.709Z,97893.56
2022-12-07T07:22:09.692Z,97881.22
2022-12-07T07:24:49.706Z,97877.66
2022-12-07T07:27:22.934Z,97888.09
2022-12-07T07:29:49.678Z,97882.00
2022-12-07T07:32:29.721Z,97875.84
2022-12-07T07:35:04.144Z,97881.03
2022-12-07T07:47:24.690Z,97879.06
2022-12-07T07:50:04.938Z,97885.06
2022-12-07T07:52:40.559Z,97876.19
2022-12-07T07:55:16.342Z,97873.50
2022-12-07T07:57:54.686Z,97876.94
2022-12-07T08:00:36.264Z,97871.66
2022-12-07T08:14:12.699Z,97876.00
2022-12-07T08:16:46.002Z,97879.47
2022-12-07T08:19:19.729Z,97886.53
2022-12-07T08:21:53.069Z,97886.53
2022-12-07T08:24:26.732Z,97892.59
2022-12-07T08:27:00.090Z,97886.53
2022-12-07T08:43:15.681Z,97883.09
2022-12-07T08:45:59.786Z,97890.91
2022-12-07T08:48:42.740Z,97889.97
2022-12-07T08:51:16.204Z,97888.97
2022-12-07T08:53:51.719Z,97891.59
2022-12-07T08:56:25.972Z,97886.28
2022-12-07T09:09:17.658Z,97900.06
2022-12-07T09:11:57.711Z,97906.91
2022-12-07T09:14:31.154Z,97906.81
2022-12-07T09:17:13.700Z,97903.25
2022-12-07T09:19:47.106Z,97904.81
2022-12-07T09:22:20.741Z,97906.53
2022-12-07T09:35:32.701Z,97899.19
2022-12-07T09:38:05.928Z,97890.38
2022-12-07T09:40:40.686Z,97893.72
2022-12-07T09:43:18.862Z,97887.56
2022-12-07T09:46:01.765Z,97881.31
2022-12-07T10:02:45.659Z,97874.78
2022-12-07T10:05:33.775Z,97872.13
2022-12-07T10:08:10.848Z,97869.41
2022-12-07T10:10:53.932Z,97865.00
2022-12-07T10:13:38.204Z,97863.16
2022-12-07T10:16:43.866Z,97859.69
2022-12-07T10:29:59.701Z,97869.81
2022-12-07T10:32:36.372Z,97861.06
2022-12-07T10:35:30.713Z,97874.06
2022-12-07T10:38:17.332Z,97874.78
2022-12-07T10:41:11.696Z,97868.53
2022-12-07T10:54:53.691Z,97861.81
2022-12-07T10:57:46.700Z,97861.66
2022-12-07T11:00:30.771Z,97860.75
2022-12-07T11:03:26.371Z,97865.09
2022-12-07T11:06:23.655Z,97861.53
2022-12-07T11:09:44.912Z,97863.25
2022-12-07T11:22:26.641Z,97856.13
2022-12-07T11:25:28.962Z,97858.84
2022-12-07T11:28:23.841Z,97843.91
2022-12-07T11:31:27.303Z,97841.28
2022-12-07T11:34:17.394Z,97829.81
2022-12-07T11:37:01.672Z,97837.72
2022-12-07T11:50:33.657Z,97828.84
2022-12-07T11:53:17.978Z,97819.16
2022-12-07T11:56:04.677Z,97817.31
2022-12-07T11:58:52.721Z,97824.25
2022-12-07T12:01:59.706Z,97820.72
2022-12-07T12:15:42.737Z,97806.63
2022-12-07T12:18:39.373Z,97796.09
2022-12-07T12:21:34.645Z,97802.25
2022-12-07T12:24:18.333Z,97802.25
2022-12-07T12:27:09.672Z,97809.25
2022-12-07T12:29:44.557Z,97806.63
2022-12-07T12:32:30.685Z,97808.47
2022-12-07T12:42:25.676Z,97805.84
2022-12-07T12:45:28.787Z,97799.66
2022-12-07T12:48:10.588Z,97814.53
2022-12-07T12:50:50.644Z,97822.44
2022-12-07T12:53:27.192Z,97830.41
2022-12-07T12:56:42.892Z,97825.34
2022-12-07T13:09:54.692Z,97836.78
2022-12-07T13:12:28.349Z,97841.16
2022-12-07T13:15:05.980Z,97850.13
2022-12-07T13:18:00.524Z,97845.84
2022-12-07T13:21:01.908Z,97852.03
2022-12-07T13:37:40.660Z,97827.72
2022-12-07T13:40:28.656Z,97840.03
2022-12-07T13:43:05.582Z,97840.88
2022-12-07T13:45:46.698Z,97834.75
2022-12-07T13:48:30.860Z,97835.75
2022-12-07T13:51:11.636Z,97834.03
2022-12-07T14:04:39.633Z,97843.84
2022-12-07T14:07:25.616Z,97835.16
2022-12-07T14:10:09.751Z,97845.69
2022-12-07T14:12:43.553Z,97841.28
2022-12-07T14:15:29.633Z,97843.97
2022-12-07T14:28:54.640Z,97825.81
2022-12-07T14:31:30.744Z,97828.53
2022-12-07T14:34:11.623Z,97833.84
2022-12-07T14:36:44.993Z,97835.63
2022-12-07T14:39:18.700Z,97843.50
2022-12-07T14:41:51.941Z,97842.66
2022-12-07T14:55:25.667Z,97823.44
2022-12-07T14:58:07.625Z,97825.16
2022-12-07T15:00:41.157Z,97826.88
2022-12-07T15:03:14.665Z,97822.53
2022-12-07T15:05:48.004Z,97832.25
2022-12-07T15:08:21.727Z,97829.63
2022-12-07T15:10:55.074Z,97825.31
2022-12-07T15:23:45.596Z,97839.56
2022-12-07T15:26:27.212Z,97843.91
2022-12-07T15:29:00.936Z,97836.94
2022-12-07T15:34:39.227Z,97832.59
2022-12-07T15:37:20.624Z,97827.41
2022-12-07T15:50:32.614Z,97837.28
2022-12-07T15:53:05.889Z,97839.09
2022-12-07T15:55:39.642Z,97827.75
2022-12-07T15:58:12.932Z,97834.75
2022-12-07T16:00:46.657Z,97825.16
2022-12-07T16:17:23.584Z,97824.25
2022-12-07T16:20:03.662Z,97837.38
2022-12-07T16:22:36.861Z,97843.56
2022-12-07T16:25:11.605Z,97833.91
2022-12-07T16:27:44.843Z,97836.56
2022-12-07T16:30:22.230Z,97834.91
2022-12-07T16:43:34.616Z,97828.19
2022-12-07T16:46:08.683Z,97829.09
2022-12-07T16:48:44.670Z,97821.38
2022-12-07T16:51:17.874Z,97830.03
2022-12-07T16:53:51.616Z,97824.91
2022-12-07T16:56:24.961Z,97830.03
2022-12-07T17:09:21.337Z,97830.03
2022-12-07T17:12:01.681Z,97823.94
2022-12-07T17:14:35.579Z,97835.44
2022-12-07T17:17:09.644Z,97842.41
2022-12-07T17:19:43.201Z,97846.66
2022-12-07T17:22:16.593Z,97843.16
2022-12-07T17:36:03.663Z,97838.91
2022-12-07T17:38:36.880Z,97837.25
2022-12-07T17:41:16.609Z,97839.94
2022-12-07T17:43:49.993Z,97839.09
2022-12-07T17:46:23.685Z,97839.94
2022-12-07T17:48:59.004Z,97835.59
2022-12-07T17:51:34.595Z,97838.25
2022-12-07T18:04:44.664Z,97847.75
2022-12-07T18:07:19.848Z,97842.50
2022-12-07T18:09:53.604Z,97846.06
2022-12-07T18:12:26.908Z,97849.59
2022-12-07T18:15:00.892Z,97839.16
2022-12-07T18:17:33.949Z,97838.34
2022-12-07T18:30:49.710Z,97840.13
2022-12-07T18:33:25.589Z,97834.94
2022-12-07T18:36:00.544Z,97838.41
2022-12-07T18:38:35.293Z,97841.91
2022-12-07T18:41:12.369Z,97840.22
2022-12-07T18:57:34.606Z,97830.44
2022-12-07T19:00:09.780Z,97839.22
2022-12-07T19:02:42.646Z,97833.97
2022-12-07T19:05:16.183Z,97837.44
2022-12-07T19:07:50.606Z,97835.72
2022-12-07T19:10:24.169Z,97835.69
2022-12-07T19:23:14.558Z,97828.72
2022-12-07T19:25:54.587Z,97837.50
2022-12-07T19:28:27.863Z,97833.97
2022-12-07T19:31:01.635Z,97840.94
2022-12-07T19:33:34.882Z,97841.84
2022-12-07T19:36:08.630Z,97840.06
2022-12-07T19:49:47.593Z,97834.75
2022-12-07T19:52:20.840Z,97840.03
2022-12-07T19:54:54.577Z,97836.53
2022-12-07T19:57:28.552Z,97840.03
2022-12-07T20:00:01.577Z,97845.28
2022-12-07T20:02:34.843Z,97840.88
2022-12-07T20:05:10.697Z,97842.66
2022-12-07T20:07:43.874Z,97839.09
2022-12-07T20:17:08.697Z,97829.56
2022-12-07T20:19:41.922Z,97827.00
2022-12-07T20:22:17.566Z,97832.25
2022-12-07T20:24:50.877Z,97835.72
2022-12-07T20:27:24.568Z,97829.69
2022-12-07T20:29:57.952Z,97836.66
2022-12-07T20:32:31.569Z,97829.69
2022-12-07T20:48:21.527Z,97830.59
2022-12-07T20:50:49.271Z,97830.53
2022-12-07T20:53:29.565Z,97826.19
2022-12-07T20:56:03.101Z,97820.94
2022-12-07T21:12:18.591Z,97818.53
2022-12-07T21:14:51.798Z,97822.84
2022-12-07T21:17:25.609Z,97828.97
2022-12-07T21:19:59.059Z,97821.09
2022-12-07T21:22:32.555Z,97823.72
2022-12-07T21:25:06.836Z,97826.28
2022-12-07T21:27:42.553Z,97821.00
2022-12-07T21:37:27.527Z,97827.91
2022-12-07T21:40:09.865Z,97823.56
2022-12-07T21:42:52.517Z,97818.38
2022-12-07T21:45:32.558Z,97815.75
2022-12-07T21:48:06.128Z,97815.81
2022-12-07T21:50:40.805Z,97818.44
2022-12-07T22:03:53.541Z,97824.63
2022-12-07T22:06:27.081Z,97814.13
2022-12-07T22:09:02.554Z,97821.16
2022-12-07T22:11:36.556Z,97818.56
2022-12-07T22:14:11.579Z,97811.63
2022-12-07T22:16:44.766Z,97807.28
2022-12-07T22:30:17.533Z,97822.13
2022-12-07T22:32:57.617Z,97811.63
2022-12-07T22:35:30.765Z,97818.56
2022-12-07T22:37:57.484Z,97822.13
2022-12-07T22:40:37.529Z,97827.41
2022-12-07T22:43:10.816Z,97827.41
2022-12-07T22:45:46.552Z,97824.78
2022-12-07T22:59:06.574Z,97817.72
2022-12-07T23:01:48.920Z,97823.81
2022-12-07T23:04:28.612Z,97820.28
2022-12-07T23:07:01.838Z,97823.81
2022-12-07T23:09:35.532Z,97813.31
2022-12-07T23:12:09.383Z,97814.19
2022-12-07T23:24:59.557Z,97814.03
2022-12-07T23:27:40.537Z,97802.81
2022-12-07T23:30:14.257Z,97808.78
2022-12-07T23:32:47.537Z,97799.19
2022-12-07T23:35:20.861Z,97810.56
2022-12-07T23:37:54.522Z,97807.94
2022-12-07T23:51:06.538Z,97806.13
2022-12-07T23:53:44.225Z,97807.81
2022-12-07T23:56:29.291Z,97809.66
2022-12-07T23:59:04.081Z,97806.13
